Time;durP1;ratioP1;P1;durP2;ratioP2;P2;SDS_P1;SDS_P2;PMS_P1;PMS_P2;Temp;Humidity;BMP_temperature;BMP_pressure;BME280_temperature;BME280_humidity;BME280_pressure;Samples;Min_cycle;Max_cycle;Signal;HPM_P1;HPM_P2
2023/05/26 00:00:10;;;;;;;4.45;2.83;;;17.80;99.90;;;;;;7388889;19;20222;-73
2023/05/26 00:02:39;;;;;;;5.35;2.85;;;17.60;99.90;;;;;;7387833;19;20154;-71
2023/05/26 00:05:09;;;;;;;4.20;2.78;;;17.60;99.90;;;;;;7388985;19;20142;-71
2023/05/26 00:07:40;;;;;;;3.50;2.58;;;17.60;99.90;;;;;;7389279;19;20171;-71
2023/05/26 00:10:10;;;;;;;5.80;3.10;;;17.60;99.90;;;;;;7388462;19;20150;-71
2023/05/26 00:12:37;;;;;;;6.57;3.20;;;17.50;99.90;;;;;;7388735;19;20557;-72
2023/05/26 00:15:03;;;;;;;4.35;2.63;;;17.30;99.90;;;;;;7387453;19;20259;-72
2023/05/26 00:17:29;;;;;;;4.20;3.17;;;17.40;99.90;;;;;;7384618;19;20154;-72
2023/05/26 00:19:55;;;;;;;3.35;2.78;;;17.10;99.90;;;;;;7390255;19;20152;-72
2023/05/26 00:22:21;;;;;;;6.30;3.20;;;17.00;99.90;;;;;;7387212;19;20492;-72
2023/05/26 00:24:47;;;;;;;3.53;2.80;;;16.90;99.90;;;;;;7386816;19;20134;-72
2023/05/26 00:27:13;;;;;;;5.53;2.53;;;16.90;99.90;;;;;;7388253;19;20149;-72
2023/05/26 00:29:41;;;;;;;4.95;2.85;;;17.10;99.90;;;;;;7388170;19;20135;-72
2023/05/26 00:32:06;;;;;;;5.35;3.08;;;17.20;99.90;;;;;;7385250;19;20142;-72
2023/05/26 00:34:35;;;;;;;4.68;2.80;;;17.30;99.90;;;;;;7387470;19;20157;-71
2023/05/26 00:37:01;;;;;;;5.25;3.30;;;17.20;99.90;;;;;;7388162;19;20699;-71
2023/05/26 00:39:29;;;;;;;5.07;2.90;;;17.10;99.90;;;;;;7388180;19;20143;-72
2023/05/26 00:41:55;;;;;;;3.50;2.60;;;16.80;99.90;;;;;;7386823;19;20162;-72
2023/05/26 00:44:23;;;;;;;3.80;2.90;;;16.60;99.90;;;;;;7389227;19;20799;-72
2023/05/26 00:46:49;;;;;;;5.25;2.75;;;16.90;99.90;;;;;;7386827;19;20153;-72
2023/05/26 00:49:15;;;;;;;4.72;2.75;;;17.00;99.90;;;;;;7388282;19;20150;-71
2023/05/26 00:51:44;;;;;;;8.05;3.08;;;17.00;99.90;;;;;;7384701;19;20184;-71
2023/05/26 00:54:10;;;;;;;5.00;2.92;;;17.10;99.90;;;;;;7388702;19;20133;-72
2023/05/26 00:56:36;;;;;;;5.70;3.13;;;17.20;99.90;;;;;;7388364;19;20210;-72
2023/05/26 00:59:03;;;;;;;3.55;2.65;;;17.10;99.90;;;;;;7386248;19;20598;-71
2023/05/26 01:01:35;;;;;;;5.47;3.10;;;17.10;99.90;;;;;;7388319;19;20887;-72
2023/05/26 01:04:00;;;;;;;5.13;2.83;;;17.20;99.90;;;;;;7388998;19;20126;-71
2023/05/26 01:06:26;;;;;;;6.78;3.17;;;17.00;99.90;;;;;;7387161;19;20134;-71
2023/05/26 01:08:52;;;;;;;4.95;2.97;;;17.00;99.90;;;;;;7387024;19;20270;-71
2023/05/26 01:11:28;;;;;;;3.75;2.97;;;17.20;99.90;;;;;;7383677;19;20142;-72
2023/05/26 01:14:01;;;;;;;4.38;2.72;;;17.20;99.90;;;;;;7386082;19;20162;-71
2023/05/26 01:16:31;;;;;;;4.55;3.00;;;17.20;99.90;;;;;;7386011;19;20137;-72
2023/05/26 01:19:13;;;;;;;8.38;2.67;;;17.20;99.90;;;;;;7386647;19;20178;-71
2023/05/26 01:21:42;;;;;;;7.72;3.10;;;17.20;99.90;;;;;;7386970;19;20432;-72
2023/05/26 01:24:16;;;;;;;5.03;2.67;;;17.20;99.90;;;;;;7387617;19;20163;-72
2023/05/26 01:27:04;;;;;;;4.43;2.50;;;17.20;99.90;;;;;;7384485;19;20135;-71
2023/05/26 01:29:32;;;;;;;5.25;3.00;;;17.30;99.90;;;;;;7385224;19;20182;-70
2023/05/26 01:32:10;;;;;;;6.18;3.28;;;17.30;99.90;;;;;;7376102;19;20168;-71
2023/05/26 01:34:36;;;;;;;5.40;3.30;;;17.20;99.90;;;;;;7385122;19;20719;-70
2023/05/26 01:37:02;;;;;;;7.10;3.28;;;17.20;99.90;;;;;;7388225;19;20137;-70
2023/05/26 01:39:28;;;;;;;3.80;2.70;;;17.30;99.90;;;;;;7385594;19;20150;-70
2023/05/26 01:42:03;;;;;;;4.45;2.67;;;17.20;99.90;;;;;;7385317;19;20208;-70
2023/05/26 01:44:43;;;;;;;6.35;3.03;;;17.10;99.90;;;;;;7387450;19;20146;-71
2023/05/26 01:47:09;;;;;;;4.50;3.00;;;17.00;99.90;;;;;;7385864;19;20197;-71
2023/05/26 01:49:40;;;;;;;5.18;3.03;;;16.90;99.90;;;;;;7384508;19;20135;-70
2023/05/26 01:52:10;;;;;;;7.07;3.58;;;16.90;99.90;;;;;;7386480;19;20162;-72
2023/05/26 01:54:48;;;;;;;5.10;3.17;;;16.90;99.90;;;;;;7385422;19;20606;-72
2023/05/26 01:57:15;;;;;;;4.45;2.83;;;16.90;99.90;;;;;;7387387;19;20134;-71
2023/05/26 01:59:41;;;;;;;5.28;3.30;;;16.90;99.90;;;;;;7384404;19;20486;-71
2023/05/26 02:02:07;;;;;;;5.03;3.05;;;16.90;99.90;;;;;;7384292;19;20139;-72
2023/05/26 02:04:32;;;;;;;6.75;3.40;;;17.00;99.90;;;;;;7385308;19;20552;-70
2023/05/26 02:07:02;;;;;;;4.15;3.20;;;17.10;99.90;;;;;;7385784;19;20155;-72
2023/05/26 02:09:30;;;;;;;6.10;3.00;;;17.10;99.90;;;;;;7385370;19;20215;-71
2023/05/26 02:11:56;;;;;;;4.25;3.08;;;17.10;99.90;;;;;;7383233;19;20139;-71
2023/05/26 02:14:21;;;;;;;4.15;3.15;;;17.10;99.90;;;;;;7386800;19;20238;-71
2023/05/26 02:16:49;;;;;;;4.28;3.10;;;17.10;99.90;;;;;;7385050;19;20157;-72
2023/05/26 02:19:16;;;;;;;4.97;3.00;;;17.00;99.90;;;;;;7386443;19;20150;-71
2023/05/26 02:21:41;;;;;;;4.85;2.78;;;17.00;99.90;;;;;;7386234;19;20650;-71
2023/05/26 02:24:07;;;;;;;6.70;3.08;;;17.00;99.90;;;;;;7385522;19;20176;-70
2023/05/26 02:26:33;;;;;;;7.00;4.03;;;17.00;99.90;;;;;;7385733;19;20138;-71
2023/05/26 02:28:59;;;;;;;5.63;3.25;;;17.00;99.90;;;;;;7385452;19;20141;-72
2023/05/26 02:31:25;;;;;;;6.72;3.00;;;17.10;99.90;;;;;;7381978;19;20146;-72
2023/05/26 02:33:53;;;;;;;6.65;3.30;;;17.00;99.90;;;;;;7381511;19;20123;-71
2023/05/26 02:36:19;;;;;;;5.25;3.10;;;17.00;99.90;;;;;;7385035;19;20175;-71
2023/05/26 02:38:45;;;;;;;5.82;3.28;;;17.00;99.90;;;;;;7390092;19;20142;-71
2023/05/26 02:41:11;;;;;;;5.05;3.20;;;17.00;99.90;;;;;;7384699;19;20980;-71
2023/05/26 02:43:38;;;;;;;4.57;3.10;;;16.90;99.90;;;;;;7390492;19;20123;-70
2023/05/26 02:46:04;;;;;;;4.63;3.33;;;16.90;99.90;;;;;;7391332;19;20139;-71
2023/05/26 02:48:30;;;;;;;5.50;3.05;;;16.90;99.90;;;;;;7389573;19;20634;-71
2023/05/26 02:50:59;;;;;;;7.70;3.40;;;16.90;99.90;;;;;;7390878;19;20145;-71
2023/05/26 02:53:25;;;;;;;4.43;3.17;;;16.70;99.90;;;;;;7389524;19;20143;-72
2023/05/26 02:55:50;;;;;;;7.72;3.22;;;16.80;99.90;;;;;;7391053;19;20602;-72
2023/05/26 02:58:16;;;;;;;3.92;3.10;;;16.80;99.90;;;;;;7390250;19;20141;-70
2023/05/26 03:00:42;;;;;;;6.82;3.88;;;16.80;99.90;;;;;;7392578;19;20135;-71
2023/05/26 03:03:08;;;;;;;5.25;3.28;;;16.70;99.90;;;;;;7389356;19;21507;-71
2023/05/26 03:05:34;;;;;;;4.38;3.20;;;16.70;99.90;;;;;;7393968;19;20135;-71
2023/05/26 03:08:00;;;;;;;4.55;3.28;;;16.70;99.90;;;;;;7390552;19;20602;-71
2023/05/26 03:10:25;;;;;;;5.05;3.05;;;16.70;99.90;;;;;;7389731;19;20131;-72
2023/05/26 03:12:51;;;;;;;5.93;3.35;;;16.70;99.90;;;;;;7389049;19;20609;-71
2023/05/26 03:15:17;;;;;;;6.72;3.50;;;16.70;99.90;;;;;;7390622;19;20147;-71
2023/05/26 03:17:43;;;;;;;6.03;3.03;;;16.70;99.90;;;;;;7383351;19;20565;-71
2023/05/26 03:20:09;;;;;;;5.05;3.10;;;16.70;99.90;;;;;;7388506;19;20152;-71
2023/05/26 03:22:35;;;;;;;5.60;3.28;;;16.70;99.90;;;;;;7389517;19;20150;-71
2023/05/26 03:25:01;;;;;;;7.38;3.63;;;16.70;99.90;;;;;;7386973;19;20131;-71
2023/05/26 03:27:26;;;;;;;6.35;3.30;;;16.60;99.90;;;;;;7389794;19;20159;-72
2023/05/26 03:29:52;;;;;;;6.05;3.38;;;16.60;99.90;;;;;;7386276;19;20269;-71
2023/05/26 03:32:18;;;;;;;4.55;3.10;;;16.60;99.90;;;;;;7390111;19;20152;-71
2023/05/26 03:34:44;;;;;;;4.35;2.88;;;16.60;99.90;;;;;;7390436;19;20160;-70
2023/05/26 03:37:15;;;;;;;5.30;3.05;;;16.50;99.90;;;;;;7390623;19;20147;-71
2023/05/26 03:39:40;;;;;;;6.47;4.55;;;16.60;99.90;;;;;;7388115;19;20150;-72
2023/05/26 03:42:07;;;;;;;7.05;3.45;;;16.50;99.90;;;;;;7389137;19;20154;-71
2023/05/26 03:44:32;;;;;;;7.10;3.83;;;16.50;99.90;;;;;;7386920;19;20154;-71
2023/05/26 03:46:58;;;;;;;6.20;3.47;;;16.50;99.90;;;;;;7389657;19;20146;-71
2023/05/26 03:49:24;;;;;;;7.40;3.50;;;16.50;99.90;;;;;;7386239;19;20554;-70
2023/05/26 03:51:50;;;;;;;4.10;3.20;;;16.50;99.90;;;;;;7386306;19;20138;-71
2023/05/26 03:54:16;;;;;;;8.95;4.03;;;16.30;99.90;;;;;;7387519;19;20154;-71
2023/05/26 03:56:43;;;;;;;7.32;3.78;;;16.20;99.90;;;;;;7388461;19;20157;-72
2023/05/26 03:59:08;;;;;;;6.68;3.97;;;16.30;99.90;;;;;;7388992;19;20595;-72
2023/05/26 04:01:36;;;;;;;6.55;3.97;;;16.40;99.90;;;;;;7390445;19;20143;-72
2023/05/26 04:04:02;;;;;;;5.32;2.97;;;16.50;99.90;;;;;;7388319;19;20138;-72
2023/05/26 04:06:28;;;;;;;5.63;3.90;;;16.60;99.90;;;;;;7389837;19;20139;-71
2023/05/26 04:08:54;;;;;;;10.07;3.92;;;16.60;99.90;;;;;;7389990;19;20493;-71
2023/05/26 04:11:22;;;;;;;5.65;3.65;;;16.60;99.90;;;;;;7387732;19;20158;-71
2023/05/26 04:13:47;;;;;;;5.20;3.33;;;16.50;99.90;;;;;;7387580;19;20488;-71
2023/05/26 04:16:13;;;;;;;8.45;3.60;;;16.50;99.90;;;;;;7390953;19;20139;-71
2023/05/26 04:18:40;;;;;;;5.95;3.42;;;16.50;99.90;;;;;;7388548;19;20134;-72
2023/05/26 04:21:07;;;;;;;4.38;3.63;;;16.50;99.90;;;;;;7388097;19;20598;-72
2023/05/26 04:23:33;;;;;;;6.18;3.72;;;16.50;99.90;;;;;;7389874;19;20138;-71
2023/05/26 04:26:00;;;;;;;6.03;3.83;;;16.60;99.90;;;;;;7390056;19;20180;-71
2023/05/26 04:28:26;;;;;;;6.97;3.67;;;16.50;99.90;;;;;;7386533;19;20498;-70
2023/05/26 04:30:52;;;;;;;7.80;3.88;;;16.50;99.90;;;;;;7388050;19;20131;-72
2023/05/26 04:33:20;;;;;;;7.22;3.70;;;16.40;99.90;;;;;;7389801;19;20235;-72
2023/05/26 04:35:47;;;;;;;5.93;3.95;;;16.40;99.90;;;;;;7390342;19;20173;-71
2023/05/26 04:38:13;;;;;;;6.40;4.00;;;16.50;99.90;;;;;;7386634;19;20153;-73
2023/05/26 04:40:39;;;;;;;7.63;4.25;;;16.50;99.90;;;;;;7389777;19;20164;-72
2023/05/26 04:43:05;;;;;;;6.32;3.72;;;16.50;99.90;;;;;;7384701;19;20167;-72
2023/05/26 04:45:33;;;;;;;9.07;3.95;;;16.60;99.90;;;;;;7386434;19;20598;-71
2023/05/26 04:48:00;;;;;;;6.82;4.22;;;16.60;99.90;;;;;;7388066;19;20157;-71
2023/05/26 04:50:25;;;;;;;9.15;4.30;;;16.70;99.90;;;;;;7387520;19;20509;-72
2023/05/26 04:52:51;;;;;;;5.57;3.78;;;16.80;99.90;;;;;;7388750;19;20150;-72
2023/05/26 04:55:17;;;;;;;9.43;4.63;;;16.80;99.90;;;;;;7391644;19;20138;-72
2023/05/26 04:57:45;;;;;;;9.55;4.50;;;16.80;99.90;;;;;;7386877;19;20142;-71
2023/05/26 05:00:15;;;;;;;5.65;4.30;;;16.80;99.90;;;;;;7388521;19;20641;-71
2023/05/26 05:02:41;;;;;;;7.93;4.00;;;16.70;99.90;;;;;;7383853;19;20153;-72
2023/05/26 05:05:07;;;;;;;8.30;4.10;;;16.70;99.90;;;;;;7388246;19;20675;-72
2023/05/26 05:07:33;;;;;;;5.53;3.60;;;16.70;99.90;;;;;;7385206;19;20222;-72
2023/05/26 05:09:59;;;;;;;7.35;4.03;;;16.60;99.90;;;;;;7387894;19;20233;-72
2023/05/26 05:12:25;;;;;;;6.95;4.15;;;16.60;99.90;;;;;;7388318;19;20143;-72
2023/05/26 05:14:51;;;;;;;6.63;4.47;;;16.50;99.90;;;;;;7387920;19;20154;-73
2023/05/26 05:17:17;;;;;;;7.82;3.65;;;16.50;99.90;;;;;;7384808;19;20598;-72
2023/05/26 05:19:43;;;;;;;5.88;3.78;;;16.50;99.90;;;;;;7387479;19;20139;-72
2023/05/26 05:22:09;;;;;;;7.15;3.90;;;16.50;99.90;;;;;;7383945;19;20602;-71
2023/05/26 05:24:35;;;;;;;6.40;4.18;;;16.60;99.90;;;;;;7386986;19;20620;-72
2023/05/26 05:27:01;;;;;;;8.13;4.40;;;16.60;99.90;;;;;;7384806;19;20196;-72
2023/05/26 05:29:27;;;;;;;7.18;3.75;;;16.90;99.90;;;;;;7386339;19;20203;-73
2023/05/26 05:31:53;;;;;;;6.38;4.10;;;16.60;99.90;;;;;;7379454;19;20130;-72
2023/05/26 05:34:19;;;;;;;9.93;4.82;;;16.70;99.90;;;;;;7385704;19;20153;-73
2023/05/26 05:36:44;;;;;;;6.75;4.13;;;16.60;99.90;;;;;;7385117;19;20154;-72
2023/05/26 05:39:10;;;;;;;8.93;4.20;;;16.60;99.90;;;;;;7385428;19;20134;-70
2023/05/26 05:41:36;;;;;;;6.88;4.05;;;16.60;99.90;;;;;;7385361;19;20158;-70
2023/05/26 05:44:03;;;;;;;7.28;3.92;;;16.60;99.90;;;;;;7384915;19;20142;-72
2023/05/26 05:46:28;;;;;;;7.13;3.97;;;16.70;99.90;;;;;;7385292;19;20149;-72
2023/05/26 05:48:54;;;;;;;8.50;4.97;;;16.70;99.90;;;;;;7382073;19;20155;-70
2023/05/26 05:51:20;;;;;;;6.32;4.18;;;16.80;99.90;;;;;;7377016;19;20167;-70
2023/05/26 05:53:46;;;;;;;8.05;3.97;;;16.70;99.90;;;;;;7377393;19;20149;-71
2023/05/26 05:56:12;;;;;;;5.85;3.70;;;16.70;99.90;;;;;;7383488;19;20146;-70
2023/05/26 05:58:38;;;;;;;5.43;4.25;;;16.70;99.90;;;;;;7382797;19;20177;-71
2023/05/26 06:01:04;;;;;;;7.00;4.63;;;16.70;99.90;;;;;;7384349;19;20157;-71
2023/05/26 06:03:29;;;;;;;5.47;3.80;;;16.80;99.90;;;;;;7382744;19;20138;-71
2023/05/26 06:05:55;;;;;;;7.35;3.80;;;16.90;99.90;;;;;;7385923;19;20177;-72
2023/05/26 06:08:21;;;;;;;6.78;4.00;;;16.90;99.90;;;;;;7385521;19;20158;-71
2023/05/26 06:10:46;;;;;;;7.85;4.60;;;17.00;99.90;;;;;;7382858;19;20602;-72
2023/05/26 06:13:12;;;;;;;9.80;4.97;;;17.00;99.90;;;;;;7386959;19;20135;-71
2023/05/26 06:15:38;;;;;;;8.40;4.13;;;18.00;99.90;;;;;;7391942;19;20689;-70
2023/05/26 06:18:04;;;;;;;6.68;3.95;;;19.60;99.90;;;;;;7391298;19;20502;-70
2023/05/26 06:20:30;;;;;;;7.28;3.70;;;21.10;99.90;;;;;;7391352;19;20158;-71
2023/05/26 06:22:55;;;;;;;6.90;4.28;;;22.10;99.90;;;;;;7392465;19;20139;-71
2023/05/26 06:25:21;;;;;;;6.90;3.83;;;22.80;99.90;;;;;;7393968;19;20135;-71
2023/05/26 06:27:47;;;;;;;8.57;4.10;;;23.50;99.90;;;;;;7391967;19;20162;-72
2023/05/26 06:30:13;;;;;;;8.60;4.38;;;24.10;99.00;;;;;;7390921;19;20599;-72
2023/05/26 06:32:39;;;;;;;5.63;3.88;;;24.30;98.40;;;;;;7393202;19;20165;-71
2023/05/26 06:35:05;;;;;;;7.68;3.88;;;24.20;98.00;;;;;;7391066;19;20536;-71
2023/05/26 06:37:31;;;;;;;5.50;3.95;;;24.60;97.50;;;;;;7392287;19;20609;-70
2023/05/26 06:39:57;;;;;;;8.02;4.35;;;24.80;96.90;;;;;;7391327;19;20135;-72
2023/05/26 06:42:23;;;;;;;6.70;4.22;;;25.20;96.30;;;;;;7388649;19;20697;-71
2023/05/26 06:44:49;;;;;;;9.23;4.63;;;25.30;96.00;;;;;;7391009;19;20190;-70
2023/05/26 06:47:15;;;;;;;5.45;4.07;;;25.60;95.60;;;;;;7387774;19;20540;-71
2023/05/26 06:49:41;;;;;;;5.70;3.90;;;25.60;94.90;;;;;;7388642;19;20131;-71
2023/05/26 06:52:07;;;;;;;8.05;3.95;;;24.90;95.60;;;;;;7384650;19;20494;-72
2023/05/26 06:54:32;;;;;;;6.20;3.97;;;24.80;95.60;;;;;;7386533;19;20150;-71
2023/05/26 06:57:00;;;;;;;9.65;3.85;;;24.80;95.80;;;;;;7386670;19;20149;-70
2023/05/26 06:59:26;;;;;;;5.35;3.88;;;24.60;95.90;;;;;;7386056;19;20135;-71
2023/05/26 07:01:52;;;;;;;7.75;3.97;;;24.40;95.80;;;;;;7385135;19;20165;-71
2023/05/26 07:04:18;;;;;;;7.20;4.32;;;23.70;96.70;;;;;;7389002;19;20803;-71
2023/05/26 07:06:43;;;;;;;6.70;3.90;;;23.60;97.40;;;;;;7390878;19;20615;-71
2023/05/26 07:09:10;;;;;;;7.25;4.13;;;23.20;97.40;;;;;;7389547;19;20210;-71
2023/05/26 07:11:36;;;;;;;7.55;4.60;;;22.80;98.40;;;;;;7385518;19;20487;-70
2023/05/26 07:14:01;;;;;;;10.23;4.82;;;22.50;98.70;;;;;;7390863;19;20147;-71
2023/05/26 07:16:27;;;;;;;11.07;4.28;;;22.40;99.00;;;;;;7388023;19;20153;-71
2023/05/26 07:18:53;;;;;;;7.45;4.47;;;22.30;99.30;;;;;;7387752;19;20508;-71
2023/05/26 07:21:21;;;;;;;7.00;4.25;;;22.60;98.80;;;;;;7390610;19;20165;-71
2023/05/26 07:23:47;;;;;;;8.02;5.35;;;23.30;98.20;;;;;;7387662;19;20131;-70
2023/05/26 07:26:13;;;;;;;7.82;4.57;;;23.10;97.90;;;;;;7388699;19;20135;-70
2023/05/26 07:28:41;;;;;;;8.43;4.70;;;23.00;98.20;;;;;;7387970;19;20637;-71
2023/05/26 07:31:07;;;;;;;7.72;4.32;;;22.90;98.30;;;;;;7388672;19;20134;-70
2023/05/26 07:33:32;;;;;;;5.97;4.30;;;22.90;98.40;;;;;;7390283;19;20142;-71
2023/05/26 07:35:58;;;;;;;7.88;4.38;;;23.10;98.30;;;;;;7389887;19;20142;-70
2023/05/26 07:38:24;;;;;;;7.25;4.72;;;23.30;98.10;;;;;;7389013;19;20130;-71
2023/05/26 07:40:51;;;;;;;8.00;4.57;;;23.40;97.80;;;;;;7391619;19;20600;-71
2023/05/26 07:43:17;;;;;;;7.15;3.83;;;23.70;97.10;;;;;;7386603;19;20801;-70
2023/05/26 07:45:43;;;;;;;6.18;4.28;;;23.50;97.30;;;;;;7391021;19;20151;-70
2023/05/26 07:48:09;;;;;;;7.13;4.35;;;23.00;97.90;;;;;;7388475;19;20142;-70
2023/05/26 07:50:34;;;;;;;10.30;4.75;;;22.50;98.80;;;;;;7387568;19;20651;-71
2023/05/26 07:53:00;;;;;;;7.70;4.50;;;22.60;99.20;;;;;;7389268;19;20131;-70
2023/05/26 07:55:26;;;;;;;6.57;4.38;;;22.60;98.70;;;;;;7388836;19;20210;-70
2023/05/26 07:57:52;;;;;;;7.47;4.43;;;22.50;99.00;;;;;;7388165;19;20165;-71
2023/05/26 08:00:18;;;;;;;8.32;4.63;;;22.50;99.30;;;;;;7386526;19;20590;-72
2023/05/26 08:02:44;;;;;;;7.38;4.55;;;22.50;99.50;;;;;;7389775;19;20137;-71
2023/05/26 08:05:09;;;;;;;10.27;5.55;;;22.60;99.50;;;;;;7388569;19;20143;-71
2023/05/26 08:07:35;;;;;;;8.50;4.93;;;22.70;99.30;;;;;;7388879;19;20147;-70
2023/05/26 08:10:02;;;;;;;10.63;4.75;;;22.70;99.30;;;;;;7389712;19;20246;-71
2023/05/26 08:12:28;;;;;;;7.90;4.95;;;22.90;99.00;;;;;;7387929;19;20134;-71
2023/05/26 08:14:57;;;;;;;7.22;4.53;;;22.90;99.00;;;;;;7389072;19;20135;-69
2023/05/26 08:17:23;;;;;;;8.45;4.63;;;22.90;99.00;;;;;;7387494;19;20142;-71
2023/05/26 08:19:49;;;;;;;8.80;4.60;;;22.70;99.40;;;;;;7388562;19;20562;-71
2023/05/26 08:22:15;;;;;;;9.60;4.40;;;22.80;99.40;;;;;;7386444;19;20473;-72
2023/05/26 08:24:41;;;;;;;8.82;4.45;;;22.90;99.30;;;;;;7387290;19;20202;-72
2023/05/26 08:27:08;;;;;;;8.60;4.25;;;23.10;99.00;;;;;;7389821;19;20195;-72
2023/05/26 08:29:34;;;;;;;7.40;4.53;;;23.30;99.00;;;;;;7389596;19;20230;-72
2023/05/26 08:31:59;;;;;;;7.07;4.75;;;23.30;98.90;;;;;;7384077;19;20215;-70
2023/05/26 08:34:25;;;;;;;6.70;4.47;;;23.50;98.80;;;;;;7390453;19;20127;-72
2023/05/26 08:36:51;;;;;;;11.13;4.85;;;23.50;98.40;;;;;;7386670;19;20153;-71
2023/05/26 08:39:17;;;;;;;8.20;4.88;;;23.40;98.70;;;;;;7388411;19;20164;-72
2023/05/26 08:41:59;;;;;;;8.38;4.60;;;23.40;98.80;;;;;;7387032;19;20182;-72
2023/05/26 08:44:26;;;;;;;6.40;4.60;;;23.40;99.00;;;;;;7388434;19;20717;-70
2023/05/26 08:46:57;;;;;;;7.18;4.85;;;23.10;99.10;;;;;;7389176;19;20151;-72
2023/05/26 08:49:23;;;;;;;10.10;4.75;;;22.80;99.70;;;;;;7386529;19;20233;-74
2023/05/26 08:52:04;;;;;;;6.63;4.43;;;22.60;99.90;;;;;;7384723;19;20154;-74
2023/05/26 08:54:31;;;;;;;6.90;3.80;;;22.70;99.90;;;;;;7387169;19;20139;-72
2023/05/26 08:56:57;;;;;;;7.25;4.00;;;23.00;99.70;;;;;;7386217;19;20151;-73
2023/05/26 08:59:23;;;;;;;6.03;4.25;;;23.10;99.50;;;;;;7388716;19;20134;-71
2023/05/26 09:01:49;;;;;;;10.77;4.22;;;22.70;99.90;;;;;;7387079;19;20146;-75
2023/05/26 09:04:15;;;;;;;7.88;5.05;;;22.20;99.90;;;;;;7387885;19;20137;-75
2023/05/26 09:06:45;;;;;;;8.30;4.57;;;22.50;99.90;;;;;;7385846;19;20206;-74
2023/05/26 09:09:13;;;;;;;7.00;4.80;;;22.50;99.90;;;;;;7385820;19;20138;-76
2023/05/26 09:11:42;;;;;;;5.20;4.45;;;22.30;99.90;;;;;;7385558;19;20459;-75
2023/05/26 09:14:12;;;;;;;6.85;4.60;;;22.00;99.90;;;;;;7388206;19;20666;-72
2023/05/26 09:16:38;;;;;;;8.70;4.90;;;21.90;99.90;;;;;;7388763;19;20457;-71
2023/05/26 09:19:03;;;;;;;7.22;4.25;;;21.90;99.90;;;;;;7386648;19;20540;-72
2023/05/26 09:21:30;;;;;;;7.68;4.25;;;22.00;99.90;;;;;;7386771;19;20138;-74
2023/05/26 09:24:00;;;;;;;7.72;4.40;;;22.00;99.90;;;;;;7386139;19;20142;-73
2023/05/26 09:26:31;;;;;;;6.03;4.10;;;22.10;99.90;;;;;;7386554;19;20519;-73
2023/05/26 09:28:58;;;;;;;7.35;4.40;;;22.10;99.90;;;;;;7385745;19;20150;-73
2023/05/26 09:31:24;;;;;;;6.70;4.22;;;22.00;99.90;;;;;;7383987;19;20496;-73
2023/05/26 09:33:50;;;;;;;10.02;4.63;;;22.00;99.90;;;;;;7384874;19;20142;-72
2023/05/26 09:36:16;;;;;;;6.85;4.10;;;22.00;99.90;;;;;;7384981;19;20151;-72
2023/05/26 09:38:43;;;;;;;9.02;4.32;;;21.90;99.90;;;;;;7386990;19;20138;-70
2023/05/26 09:41:09;;;;;;;7.15;4.05;;;21.90;99.90;;;;;;7384011;19;20141;-74
2023/05/26 09:43:36;;;;;;;6.82;4.63;;;21.70;99.90;;;;;;7381885;19;20182;-75
2023/05/26 09:46:22;;;;;;;9.85;5.75;;;21.80;99.90;;;;;;7383801;19;20147;-75
2023/05/26 09:48:50;;;;;;;8.63;4.10;;;22.00;99.90;;;;;;7382068;19;20154;-75
2023/05/26 09:51:30;;;;;;;7.05;4.00;;;22.30;99.90;;;;;;7382996;19;20146;-74
2023/05/26 09:53:56;;;;;;;8.13;4.30;;;22.50;99.90;;;;;;7384115;19;20150;-75
2023/05/26 09:56:26;;;;;;;10.85;4.70;;;22.50;99.90;;;;;;7388918;19;20138;-74
2023/05/26 09:58:54;;;;;;;6.10;4.05;;;22.40;99.90;;;;;;7383353;19;20202;-75
2023/05/26 10:01:21;;;;;;;8.43;4.72;;;22.20;99.90;;;;;;7387632;19;20206;-74
2023/05/26 10:03:49;;;;;;;12.02;4.82;;;21.90;99.90;;;;;;7382480;19;20135;-75
2023/05/26 10:06:17;;;;;;;6.53;4.00;;;21.90;99.90;;;;;;7385736;19;20154;-74
2023/05/26 10:08:50;;;;;;;8.45;4.32;;;22.00;99.90;;;;;;7383778;19;20605;-75
2023/05/26 10:11:17;;;;;;;7.15;3.92;;;22.10;99.90;;;;;;7381208;19;20173;-75
2023/05/26 10:13:44;;;;;;;8.07;4.00;;;22.30;99.90;;;;;;7383664;19;20154;-76
2023/05/26 10:16:10;;;;;;;5.10;3.90;;;22.40;99.90;;;;;;7383790;19;20238;-74
2023/05/26 10:18:37;;;;;;;6.05;3.80;;;22.30;99.90;;;;;;7385434;19;20134;-74
2023/05/26 10:21:09;;;;;;;7.90;4.28;;;22.20;99.90;;;;;;7384344;19;20484;-76
2023/05/26 10:23:42;;;;;;;8.13;4.30;;;22.30;99.90;;;;;;7381917;19;20153;-74
2023/05/26 10:26:17;;;;;;;7.68;4.35;;;22.30;99.90;;;;;;7384396;19;20147;-74
2023/05/26 10:29:03;;;;;;;7.88;4.90;;;22.20;99.90;;;;;;7385777;19;20186;-75
2023/05/26 10:31:30;;;;;;;7.13;4.30;;;22.20;99.90;;;;;;7384129;19;20851;-74
2023/05/26 10:33:57;;;;;;;5.95;4.25;;;22.20;99.90;;;;;;7382104;19;20153;-75
2023/05/26 10:36:23;;;;;;;6.75;4.30;;;22.20;99.90;;;;;;7386115;19;20146;-76
2023/05/26 10:38:51;;;;;;;9.05;4.63;;;22.30;99.90;;;;;;7384301;19;20137;-74
2023/05/26 10:41:38;;;;;;;10.93;4.38;;;22.40;99.90;;;;;;7383439;19;20245;-72
2023/05/26 10:44:04;;;;;;;9.65;4.50;;;22.30;99.90;;;;;;7383734;19;20134;-73
2023/05/26 10:46:45;;;;;;;4.97;3.75;;;22.30;99.90;;;;;;7381328;19;20147;-76
2023/05/26 10:49:24;;;;;;;6.82;4.07;;;22.20;99.90;;;;;;7382970;19;20147;-75
2023/05/26 10:51:55;;;;;;;9.48;3.78;;;22.10;99.90;;;;;;7380569;19;20233;-73
2023/05/26 10:54:24;;;;;;;8.90;3.72;;;22.10;99.90;;;;;;7382634;19;20234;-73
2023/05/26 10:56:52;;;;;;;5.80;3.63;;;22.20;99.90;;;;;;7383247;19;20139;-73
2023/05/26 10:59:28;;;;;;;9.68;4.68;;;22.30;99.90;;;;;;7385846;19;20138;-75
2023/05/26 11:01:54;;;;;;;8.45;4.20;;;22.40;99.90;;;;;;7389097;19;20149;-72
2023/05/26 11:04:21;;;;;;;7.20;4.28;;;22.40;99.90;;;;;;7390382;19;20162;-74
2023/05/26 11:06:58;;;;;;;10.45;4.57;;;22.50;99.90;;;;;;7390492;19;20146;-74
2023/05/26 11:09:26;;;;;;;6.43;4.13;;;22.50;99.90;;;;;;7390226;19;20206;-74
2023/05/26 11:11:58;;;;;;;7.15;3.78;;;22.60;99.90;;;;;;7386467;19;20175;-75
2023/05/26 11:14:27;;;;;;;6.93;4.25;;;22.50;99.90;;;;;;7392387;19;20130;-74
2023/05/26 11:16:57;;;;;;;8.25;4.32;;;22.40;99.90;;;;;;7389516;19;20142;-73
2023/05/26 11:19:33;;;;;;;4.80;3.42;;;22.50;99.90;;;;;;7390512;19;20143;-76
2023/05/26 11:22:04;;;;;;;5.15;3.72;;;22.60;99.90;;;;;;7390849;19;21090;-74
2023/05/26 11:24:31;;;;;;;4.50;3.58;;;22.60;99.90;;;;;;7389395;19;20491;-74
2023/05/26 11:27:03;;;;;;;6.05;3.65;;;22.70;99.90;;;;;;7389162;19;20632;-76
2023/05/26 11:29:30;;;;;;;8.18;4.32;;;22.70;99.90;;;;;;7387902;19;20146;-75
2023/05/26 11:31:56;;;;;;;5.60;3.75;;;22.80;99.90;;;;;;7386218;19;20181;-74
2023/05/26 11:34:22;;;;;;;9.57;4.78;;;22.90;99.90;;;;;;7389789;19;20150;-75
2023/05/26 11:36:51;;;;;;;6.55;4.25;;;22.90;99.90;;;;;;7391500;19;20173;-74
2023/05/26 11:39:17;;;;;;;7.13;4.50;;;22.90;99.90;;;;;;7389091;19;20146;-75
2023/05/26 11:41:44;;;;;;;12.45;3.80;;;23.00;99.90;;;;;;7387939;19;20153;-75
2023/05/26 11:44:15;;;;;;;6.47;3.53;;;23.00;99.90;;;;;;7389403;19;20142;-76
2023/05/26 11:46:42;;;;;;;6.60;4.25;;;23.00;99.90;;;;;;7389528;19;20139;-78
2023/05/26 11:49:16;;;;;;;6.47;3.72;;;22.90;99.90;;;;;;7388913;19;20139;-76
2023/05/26 11:51:50;;;;;;;8.32;3.97;;;22.90;99.90;;;;;;7387857;19;20165;-78
2023/05/26 11:54:17;;;;;;;5.43;3.97;;;22.80;99.90;;;;;;7389759;19;20227;-77
2023/05/26 11:56:44;;;;;;;7.75;3.97;;;22.80;99.90;;;;;;7390823;19;20165;-79
2023/05/26 11:59:16;;;;;;;7.05;4.35;;;23.00;99.90;;;;;;7388138;19;20146;-75
2023/05/26 12:01:42;;;;;;;4.70;3.70;;;23.10;99.90;;;;;;7390612;19;20521;-78
2023/05/26 12:04:07;;;;;;;5.25;4.00;;;23.20;99.90;;;;;;7388382;19;20154;-77
2023/05/26 12:06:39;;;;;;;6.22;4.07;;;23.30;99.90;;;;;;7389239;19;20170;-77
2023/05/26 12:09:23;;;;;;;5.13;3.65;;;23.30;99.90;;;;;;7386515;19;20161;-81
2023/05/26 12:11:57;;;;;;;7.25;3.85;;;23.30;99.90;;;;;;7381911;19;20135;-80
2023/05/26 12:14:22;;;;;;;5.50;3.88;;;23.40;99.90;;;;;;7388628;19;20250;-79
2023/05/26 12:16:52;;;;;;;7.63;3.92;;;23.40;99.90;;;;;;7387263;19;20630;-79
2023/05/26 12:19:21;;;;;;;6.90;3.90;;;23.40;99.90;;;;;;7391599;19;20149;-81
2023/05/26 12:21:47;;;;;;;6.65;3.38;;;23.30;99.90;;;;;;7386794;19;20218;-79
2023/05/26 12:24:27;;;;;;;7.55;4.45;;;23.20;99.90;;;;;;7387804;19;20134;-78
2023/05/26 12:26:56;;;;;;;6.53;4.05;;;23.30;99.90;;;;;;7387207;19;21638;-78
2023/05/26 12:29:21;;;;;;;5.95;3.45;;;23.30;99.90;;;;;;7390450;19;20324;-78
2023/05/26 12:31:50;;;;;;;7.97;3.85;;;23.50;99.90;;;;;;7383078;19;20142;-79
2023/05/26 12:34:25;;;;;;;5.72;3.50;;;23.50;99.90;;;;;;7386793;19;20131;-81
2023/05/26 12:36:51;;;;;;;5.90;3.65;;;23.50;99.90;;;;;;7388388;19;20146;-80
2023/05/26 12:39:18;;;;;;;4.95;3.55;;;23.60;99.90;;;;;;7386679;19;20507;-80
2023/05/26 12:41:47;;;;;;;5.00;3.20;;;23.60;99.90;;;;;;7387830;19;20511;-79
2023/05/26 12:44:14;;;;;;;5.55;3.80;;;23.60;99.70;;;;;;7386315;19;20154;-79
2023/05/26 12:46:44;;;;;;;4.28;3.30;;;23.60;99.90;;;;;;7386377;19;20134;-79